sensor_id;sensor_type;location;lat;lon;timestamp;temperature;humidity
439;DHT22;206;48.782;9.252;2024-03-06T00:01:51;8.60;64.60
439;DHT22;206;48.782;9.252;2024-03-06T00:04:16;8.60;64.80
439;DHT22;206;48.782;9.252;2024-03-06T00:06:42;8.60;65.60
439;DHT22;206;48.782;9.252;2024-03-06T00:09:07;8.60;64.20
439;DHT22;206;48.782;9.252;2024-03-06T00:11:34;8.60;64.00
439;DHT22;206;48.782;9.252;2024-03-06T00:14:02;8.50;64.00
439;DHT22;206;48.782;9.252;2024-03-06T00:16:28;8.50;64.80
439;DHT22;206;48.782;9.252;2024-03-06T00:18:53;8.60;64.30
439;DHT22;206;48.782;9.252;2024-03-06T00:21:19;8.60;64.20
439;DHT22;206;48.782;9.252;2024-03-06T00:23:45;8.60;63.10
439;DHT22;206;48.782;9.252;2024-03-06T00:26:11;8.60;63.80
439;DHT22;206;48.782;9.252;2024-03-06T00:28:38;8.60;64.00
439;DHT22;206;48.782;9.252;2024-03-06T00:31:05;8.60;64.40
439;DHT22;206;48.782;9.252;2024-03-06T00:33:30;8.60;65.10
439;DHT22;206;48.782;9.252;2024-03-06T00:35:56;8.70;65.30
439;DHT22;206;48.782;9.252;2024-03-06T00:38:21;8.70;64.20
439;DHT22;206;48.782;9.252;2024-03-06T00:40:47;8.70;64.10
439;DHT22;206;48.782;9.252;2024-03-06T00:43:12;8.70;64.00
439;DHT22;206;48.782;9.252;2024-03-06T00:45:38;8.70;63.60
439;DHT22;206;48.782;9.252;2024-03-06T00:48:04;8.70;64.20
439;DHT22;206;48.782;9.252;2024-03-06T00:50:30;8.70;64.70
439;DHT22;206;48.782;9.252;2024-03-06T00:52:55;8.70;65.20
439;DHT22;206;48.782;9.252;2024-03-06T00:55:21;8.70;66.00
439;DHT22;206;48.782;9.252;2024-03-06T00:57:47;8.70;65.70
439;DHT22;206;48.782;9.252;2024-03-06T01:00:13;8.70;65.70
439;DHT22;206;48.782;9.252;2024-03-06T01:02:39;8.70;64.90
439;DHT22;206;48.782;9.252;2024-03-06T01:05:06;8.70;64.20
439;DHT22;206;48.782;9.252;2024-03-06T01:07:37;8.60;64.20
439;DHT22;206;48.782;9.252;2024-03-06T01:10:03;8.60;64.80
439;DHT22;206;48.782;9.252;2024-03-06T01:12:29;8.60;65.70
439;DHT22;206;48.782;9.252;2024-03-06T01:14:54;8.60;66.70
439;DHT22;206;48.782;9.252;2024-03-06T01:17:20;8.60;67.60
439;DHT22;206;48.782;9.252;2024-03-06T01:19:46;8.60;69.40
439;DHT22;206;48.782;9.252;2024-03-06T01:22:11;8.60;70.20
439;DHT22;206;48.782;9.252;2024-03-06T01:24:40;8.60;70.90
439;DHT22;206;48.782;9.252;2024-03-06T01:27:06;8.70;70.80
439;DHT22;206;48.782;9.252;2024-03-06T01:29:32;8.70;71.10
439;DHT22;206;48.782;9.252;2024-03-06T01:31:58;8.70;71.10
439;DHT22;206;48.782;9.252;2024-03-06T01:34:24;8.70;71.30
439;DHT22;206;48.782;9.252;2024-03-06T01:36:50;8.80;70.70
439;DHT22;206;48.782;9.252;2024-03-06T01:39:16;8.70;70.50
439;DHT22;206;48.782;9.252;2024-03-06T01:41:49;8.70;71.00
439;DHT22;206;48.782;9.252;2024-03-06T01:44:16;8.80;70.50
439;DHT22;206;48.782;9.252;2024-03-06T01:46:42;8.70;69.90
439;DHT22;206;48.782;9.252;2024-03-06T01:49:09;8.70;69.60
439;DHT22;206;48.782;9.252;2024-03-06T01:51:35;8.60;68.40
439;DHT22;206;48.782;9.252;2024-03-06T01:54:01;8.60;67.80
439;DHT22;206;48.782;9.252;2024-03-06T01:56:30;8.50;66.80
439;DHT22;206;48.782;9.252;2024-03-06T01:58:56;8.50;65.70
439;DHT22;206;48.782;9.252;2024-03-06T02:01:22;8.40;64.60
439;DHT22;206;48.782;9.252;2024-03-06T02:03:48;8.40;65.40
439;DHT22;206;48.782;9.252;2024-03-06T02:06:14;8.40;64.90
439;DHT22;206;48.782;9.252;2024-03-06T02:08:45;8.40;66.10
439;DHT22;206;48.782;9.252;2024-03-06T02:11:11;8.40;66.90
439;DHT22;206;48.782;9.252;2024-03-06T02:13:37;8.40;67.40
439;DHT22;206;48.782;9.252;2024-03-06T02:16:02;8.40;67.40
439;DHT22;206;48.782;9.252;2024-03-06T02:18:28;8.40;67.40
439;DHT22;206;48.782;9.252;2024-03-06T02:20:54;8.40;67.50
439;DHT22;206;48.782;9.252;2024-03-06T02:23:19;8.40;66.70
439;DHT22;206;48.782;9.252;2024-03-06T02:25:47;8.40;66.30
439;DHT22;206;48.782;9.252;2024-03-06T02:28:13;8.50;67.50
439;DHT22;206;48.782;9.252;2024-03-06T02:30:39;8.50;68.60
439;DHT22;206;48.782;9.252;2024-03-06T02:33:05;8.50;69.10
439;DHT22;206;48.782;9.252;2024-03-06T02:35:35;8.50;70.10
439;DHT22;206;48.782;9.252;2024-03-06T02:38:03;8.50;70.00
439;DHT22;206;48.782;9.252;2024-03-06T02:40:30;8.50;69.10
439;DHT22;206;48.782;9.252;2024-03-06T02:42:56;8.50;68.80
439;DHT22;206;48.782;9.252;2024-03-06T02:45:21;8.50;68.80
439;DHT22;206;48.782;9.252;2024-03-06T02:47:47;8.60;69.10
439;DHT22;206;48.782;9.252;2024-03-06T02:50:13;8.60;70.10
439;DHT22;206;48.782;9.252;2024-03-06T02:52:39;8.60;68.40
439;DHT22;206;48.782;9.252;2024-03-06T02:55:05;8.60;67.90
439;DHT22;206;48.782;9.252;2024-03-06T02:57:31;8.60;68.40
439;DHT22;206;48.782;9.252;2024-03-06T02:59:57;8.70;67.70
439;DHT22;206;48.782;9.252;2024-03-06T03:02:23;8.70;67.70
439;DHT22;206;48.782;9.252;2024-03-06T03:04:52;8.70;67.70
439;DHT22;206;48.782;9.252;2024-03-06T03:07:21;8.70;67.70
439;DHT22;206;48.782;9.252;2024-03-06T03:09:46;8.70;67.40
439;DHT22;206;48.782;9.252;2024-03-06T03:12:12;8.70;67.10
439;DHT22;206;48.782;9.252;2024-03-06T03:14:40;8.70;65.80
439;DHT22;206;48.782;9.252;2024-03-06T03:17:06;8.60;65.10
439;DHT22;206;48.782;9.252;2024-03-06T03:19:32;8.70;65.30
439;DHT22;206;48.782;9.252;2024-03-06T03:21:57;8.60;64.50
439;DHT22;206;48.782;9.252;2024-03-06T03:24:23;8.70;65.10
439;DHT22;206;48.782;9.252;2024-03-06T03:26:51;8.60;65.00
439;DHT22;206;48.782;9.252;2024-03-06T03:29:17;8.70;65.10
439;DHT22;206;48.782;9.252;2024-03-06T03:31:43;8.70;65.20
439;DHT22;206;48.782;9.252;2024-03-06T03:34:08;8.70;64.70
439;DHT22;206;48.782;9.252;2024-03-06T03:36:34;8.70;64.60
439;DHT22;206;48.782;9.252;2024-03-06T03:39:00;8.70;62.70
439;DHT22;206;48.782;9.252;2024-03-06T03:41:26;8.70;60.90
439;DHT22;206;48.782;9.252;2024-03-06T03:43:51;8.70;61.90
439;DHT22;206;48.782;9.252;2024-03-06T03:46:17;8.70;61.80
439;DHT22;206;48.782;9.252;2024-03-06T03:48:43;8.70;61.70
439;DHT22;206;48.782;9.252;2024-03-06T03:51:09;8.70;61.00
439;DHT22;206;48.782;9.252;2024-03-06T03:53:35;8.80;60.40
439;DHT22;206;48.782;9.252;2024-03-06T03:56:01;8.80;59.90
439;DHT22;206;48.782;9.252;2024-03-06T03:58:28;8.80;60.30
439;DHT22;206;48.782;9.252;2024-03-06T04:00:54;8.80;61.20
439;DHT22;206;48.782;9.252;2024-03-06T04:03:21;8.80;59.80
439;DHT22;206;48.782;9.252;2024-03-06T04:05:48;8.80;59.60
439;DHT22;206;48.782;9.252;2024-03-06T04:08:13;8.80;60.50
439;DHT22;206;48.782;9.252;2024-03-06T04:10:39;8.70;59.60
439;DHT22;206;48.782;9.252;2024-03-06T04:13:05;8.70;61.00
439;DHT22;206;48.782;9.252;2024-03-06T04:15:31;8.70;61.40
439;DHT22;206;48.782;9.252;2024-03-06T04:17:57;8.70;62.00
439;DHT22;206;48.782;9.252;2024-03-06T04:20:23;8.70;62.10
439;DHT22;206;48.782;9.252;2024-03-06T04:22:49;8.70;61.00
439;DHT22;206;48.782;9.252;2024-03-06T04:25:16;8.70;61.40
439;DHT22;206;48.782;9.252;2024-03-06T04:27:43;8.70;62.70
439;DHT22;206;48.782;9.252;2024-03-06T04:30:09;8.70;62.10
439;DHT22;206;48.782;9.252;2024-03-06T04:32:34;8.70;62.70
439;DHT22;206;48.782;9.252;2024-03-06T04:35:00;8.70;62.70
439;DHT22;206;48.782;9.252;2024-03-06T04:37:26;8.70;62.70
439;DHT22;206;48.782;9.252;2024-03-06T04:39:56;8.70;62.70
439;DHT22;206;48.782;9.252;2024-03-06T04:42:21;8.70;62.80
439;DHT22;206;48.782;9.252;2024-03-06T04:44:47;8.70;62.70
439;DHT22;206;48.782;9.252;2024-03-06T04:47:13;8.60;63.00
439;DHT22;206;48.782;9.252;2024-03-06T04:49:38;8.60;63.20
439;DHT22;206;48.782;9.252;2024-03-06T04:52:04;8.70;64.00
439;DHT22;206;48.782;9.252;2024-03-06T04:54:30;8.70;64.10
439;DHT22;206;48.782;9.252;2024-03-06T04:56:56;8.60;64.30
439;DHT22;206;48.782;9.252;2024-03-06T04:59:21;8.60;64.50
439;DHT22;206;48.782;9.252;2024-03-06T05:01:47;8.60;64.60
439;DHT22;206;48.782;9.252;2024-03-06T05:04:13;8.70;64.80
439;DHT22;206;48.782;9.252;2024-03-06T05:06:38;8.70;64.60
439;DHT22;206;48.782;9.252;2024-03-06T05:09:04;8.70;65.10
439;DHT22;206;48.782;9.252;2024-03-06T05:11:31;8.70;65.70
439;DHT22;206;48.782;9.252;2024-03-06T05:13:59;8.70;66.60
439;DHT22;206;48.782;9.252;2024-03-06T05:16:24;8.80;66.10
439;DHT22;206;48.782;9.252;2024-03-06T05:18:52;8.80;66.10
439;DHT22;206;48.782;9.252;2024-03-06T05:21:18;8.80;65.40
439;DHT22;206;48.782;9.252;2024-03-06T05:23:43;8.80;62.80
439;DHT22;206;48.782;9.252;2024-03-06T05:26:09;8.70;59.90
439;DHT22;206;48.782;9.252;2024-03-06T05:28:35;8.70;60.50
439;DHT22;206;48.782;9.252;2024-03-06T05:31:00;8.70;60.80
439;DHT22;206;48.782;9.252;2024-03-06T05:33:26;8.60;62.60
439;DHT22;206;48.782;9.252;2024-03-06T05:35:54;8.60;62.00
439;DHT22;206;48.782;9.252;2024-03-06T05:38:19;8.60;62.70
439;DHT22;206;48.782;9.252;2024-03-06T05:40:47;8.60;62.70
439;DHT22;206;48.782;9.252;2024-03-06T05:43:13;8.70;63.00
439;DHT22;206;48.782;9.252;2024-03-06T05:45:38;8.70;64.00
439;DHT22;206;48.782;9.252;2024-03-06T05:48:04;8.60;62.60
439;DHT22;206;48.782;9.252;2024-03-06T05:50:30;8.60;63.10
439;DHT22;206;48.782;9.252;2024-03-06T05:52:57;8.70;64.60
439;DHT22;206;48.782;9.252;2024-03-06T05:55:23;8.70;64.80
439;DHT22;206;48.782;9.252;2024-03-06T05:57:48;8.70;64.90
439;DHT22;206;48.782;9.252;2024-03-06T06:00:15;8.80;64.20
439;DHT22;206;48.782;9.252;2024-03-06T06:02:43;8.80;62.80
439;DHT22;206;48.782;9.252;2024-03-06T06:05:10;8.80;61.80
439;DHT22;206;48.782;9.252;2024-03-06T06:07:36;8.80;61.90
439;DHT22;206;48.782;9.252;2024-03-06T06:10:04;8.80;63.50
439;DHT22;206;48.782;9.252;2024-03-06T06:12:33;8.80;62.80
439;DHT22;206;48.782;9.252;2024-03-06T06:14:59;8.70;64.10
439;DHT22;206;48.782;9.252;2024-03-06T06:17:24;8.60;65.40
439;DHT22;206;48.782;9.252;2024-03-06T06:19:50;8.60;65.70
439;DHT22;206;48.782;9.252;2024-03-06T06:22:16;8.60;66.10
439;DHT22;206;48.782;9.252;2024-03-06T06:24:41;8.60;66.70
439;DHT22;206;48.782;9.252;2024-03-06T06:27:07;8.70;65.50
439;DHT22;206;48.782;9.252;2024-03-06T06:29:33;8.70;64.40
439;DHT22;206;48.782;9.252;2024-03-06T06:31:59;8.60;64.10
439;DHT22;206;48.782;9.252;2024-03-06T06:34:25;8.50;64.80
439;DHT22;206;48.782;9.252;2024-03-06T06:36:53;8.50;66.10
439;DHT22;206;48.782;9.252;2024-03-06T06:39:19;8.60;67.60
439;DHT22;206;48.782;9.252;2024-03-06T06:41:44;8.50;65.10
439;DHT22;206;48.782;9.252;2024-03-06T06:44:10;8.50;65.90
439;DHT22;206;48.782;9.252;2024-03-06T06:46:36;8.50;67.20
439;DHT22;206;48.782;9.252;2024-03-06T06:49:06;8.60;67.60
439;DHT22;206;48.782;9.252;2024-03-06T06:51:32;8.60;67.60
439;DHT22;206;48.782;9.252;2024-03-06T06:53:57;8.60;67.00
439;DHT22;206;48.782;9.252;2024-03-06T06:56:23;8.60;67.10
439;DHT22;206;48.782;9.252;2024-03-06T06:58:49;8.70;67.70
439;DHT22;206;48.782;9.252;2024-03-06T07:01:15;8.80;67.80
439;DHT22;206;48.782;9.252;2024-03-06T07:03:42;8.80;67.80
439;DHT22;206;48.782;9.252;2024-03-06T07:06:08;8.90;67.50
439;DHT22;206;48.782;9.252;2024-03-06T07:08:33;9.00;66.20
439;DHT22;206;48.782;9.252;2024-03-06T07:10:59;9.10;65.30
439;DHT22;206;48.782;9.252;2024-03-06T07:13:24;9.20;64.50
439;DHT22;206;48.782;9.252;2024-03-06T07:15:50;9.20;63.90
439;DHT22;206;48.782;9.252;2024-03-06T07:18:15;9.20;63.10
439;DHT22;206;48.782;9.252;2024-03-06T07:20:41;9.30;63.80
439;DHT22;206;48.782;9.252;2024-03-06T07:23:07;9.30;62.60
439;DHT22;206;48.782;9.252;2024-03-06T07:25:32;9.20;61.60
439;DHT22;206;48.782;9.252;2024-03-06T07:27:58;9.20;62.60
439;DHT22;206;48.782;9.252;2024-03-06T07:30:23;9.20;63.90
439;DHT22;206;48.782;9.252;2024-03-06T07:32:49;9.20;61.90
439;DHT22;206;48.782;9.252;2024-03-06T07:35:14;9.20;62.20
439;DHT22;206;48.782;9.252;2024-03-06T07:37:40;9.10;61.70
439;DHT22;206;48.782;9.252;2024-03-06T07:40:07;9.10;63.00
439;DHT22;206;48.782;9.252;2024-03-06T07:42:34;9.10;60.90
439;DHT22;206;48.782;9.252;2024-03-06T07:45:00;9.00;62.30
439;DHT22;206;48.782;9.252;2024-03-06T07:47:26;9.00;62.60
439;DHT22;206;48.782;9.252;2024-03-06T07:49:52;9.00;63.00
439;DHT22;206;48.782;9.252;2024-03-06T07:52:17;9.00;63.00
439;DHT22;206;48.782;9.252;2024-03-06T07:54:43;9.10;63.30
439;DHT22;206;48.782;9.252;2024-03-06T07:57:08;9.10;63.10
439;DHT22;206;48.782;9.252;2024-03-06T07:59:35;9.10;63.80
439;DHT22;206;48.782;9.252;2024-03-06T08:02:00;9.10;63.00
439;DHT22;206;48.782;9.252;2024-03-06T08:04:26;9.10;62.40
439;DHT22;206;48.782;9.252;2024-03-06T08:06:52;9.00;63.60
439;DHT22;206;48.782;9.252;2024-03-06T08:09:18;9.10;63.00
439;DHT22;206;48.782;9.252;2024-03-06T08:11:45;9.10;63.00
439;DHT22;206;48.782;9.252;2024-03-06T08:14:11;9.00;63.00
439;DHT22;206;48.782;9.252;2024-03-06T08:16:36;9.00;63.50
439;DHT22;206;48.782;9.252;2024-03-06T08:19:02;9.10;64.60
439;DHT22;206;48.782;9.252;2024-03-06T08:21:28;9.10;63.10
439;DHT22;206;48.782;9.252;2024-03-06T08:23:54;9.20;64.70
439;DHT22;206;48.782;9.252;2024-03-06T08:26:19;9.20;63.20
439;DHT22;206;48.782;9.252;2024-03-06T08:28:45;9.30;63.30
439;DHT22;206;48.782;9.252;2024-03-06T08:31:10;9.20;61.50
439;DHT22;206;48.782;9.252;2024-03-06T08:33:36;9.30;63.20
439;DHT22;206;48.782;9.252;2024-03-06T08:36:03;9.30;63.00
439;DHT22;206;48.782;9.252;2024-03-06T08:38:28;9.20;61.70
439;DHT22;206;48.782;9.252;2024-03-06T08:40:54;9.10;61.60
439;DHT22;206;48.782;9.252;2024-03-06T08:43:20;9.10;64.70
439;DHT22;206;48.782;9.252;2024-03-06T08:45:46;9.10;65.00
439;DHT22;206;48.782;9.252;2024-03-06T08:48:11;9.10;64.40
439;DHT22;206;48.782;9.252;2024-03-06T08:50:38;9.10;64.30
439;DHT22;206;48.782;9.252;2024-03-06T08:53:03;9.10;64.50
439;DHT22;206;48.782;9.252;2024-03-06T08:55:29;9.10;64.70
439;DHT22;206;48.782;9.252;2024-03-06T08:57:54;9.10;65.20
439;DHT22;206;48.782;9.252;2024-03-06T09:00:20;9.00;64.00
439;DHT22;206;48.782;9.252;2024-03-06T09:02:46;8.90;64.50
439;DHT22;206;48.782;9.252;2024-03-06T09:05:12;8.90;66.00
439;DHT22;206;48.782;9.252;2024-03-06T09:07:38;9.00;66.40
439;DHT22;206;48.782;9.252;2024-03-06T09:10:07;9.00;67.10
439;DHT22;206;48.782;9.252;2024-03-06T09:12:33;9.00;67.00
439;DHT22;206;48.782;9.252;2024-03-06T09:14:58;9.00;66.20
439;DHT22;206;48.782;9.252;2024-03-06T09:17:26;8.80;66.10
439;DHT22;206;48.782;9.252;2024-03-06T09:19:52;8.90;68.80
439;DHT22;206;48.782;9.252;2024-03-06T09:22:17;8.90;67.90
439;DHT22;206;48.782;9.252;2024-03-06T09:24:43;8.90;66.00
439;DHT22;206;48.782;9.252;2024-03-06T09:27:09;8.80;66.80
439;DHT22;206;48.782;9.252;2024-03-06T09:29:34;8.80;67.40
439;DHT22;206;48.782;9.252;2024-03-06T09:32:00;8.80;68.90
439;DHT22;206;48.782;9.252;2024-03-06T09:34:26;8.80;69.10
439;DHT22;206;48.782;9.252;2024-03-06T09:36:51;8.90;70.00
439;DHT22;206;48.782;9.252;2024-03-06T09:39:18;8.90;68.30
439;DHT22;206;48.782;9.252;2024-03-06T09:41:51;8.90;67.30
439;DHT22;206;48.782;9.252;2024-03-06T09:44:17;8.70;67.70
439;DHT22;206;48.782;9.252;2024-03-06T09:46:48;8.80;70.00
439;DHT22;206;48.782;9.252;2024-03-06T09:49:18;8.80;69.40
439;DHT22;206;48.782;9.252;2024-03-06T09:51:48;8.80;69.80
439;DHT22;206;48.782;9.252;2024-03-06T09:54:19;8.70;70.10
439;DHT22;206;48.782;9.252;2024-03-06T09:56:48;8.70;69.70
439;DHT22;206;48.782;9.252;2024-03-06T09:59:14;8.80;71.30
439;DHT22;206;48.782;9.252;2024-03-06T10:02:00;8.80;69.70
439;DHT22;206;48.782;9.252;2024-03-06T10:04:32;8.80;69.60
439;DHT22;206;48.782;9.252;2024-03-06T10:07:00;8.80;71.40
439;DHT22;206;48.782;9.252;2024-03-06T10:09:27;8.80;69.60
439;DHT22;206;48.782;9.252;2024-03-06T10:11:54;8.70;69.50
439;DHT22;206;48.782;9.252;2024-03-06T10:14:22;8.80;70.80
439;DHT22;206;48.782;9.252;2024-03-06T10:16:56;8.80;72.20
439;DHT22;206;48.782;9.252;2024-03-06T10:19:23;8.90;71.60
439;DHT22;206;48.782;9.252;2024-03-06T10:21:50;9.00;70.10
439;DHT22;206;48.782;9.252;2024-03-06T10:24:22;9.00;70.00
439;DHT22;206;48.782;9.252;2024-03-06T10:26:52;9.10;69.40
439;DHT22;206;48.782;9.252;2024-03-06T10:29:21;9.10;69.30
439;DHT22;206;48.782;9.252;2024-03-06T10:31:57;9.10;69.40
439;DHT22;206;48.782;9.252;2024-03-06T10:34:27;9.20;70.70
439;DHT22;206;48.782;9.252;2024-03-06T10:36:54;9.30;71.00
439;DHT22;206;48.782;9.252;2024-03-06T10:39:20;9.40;69.10
439;DHT22;206;48.782;9.252;2024-03-06T10:41:46;9.40;69.80
439;DHT22;206;48.782;9.252;2024-03-06T10:44:16;9.40;69.10
439;DHT22;206;48.782;9.252;2024-03-06T10:46:45;9.60;67.90
439;DHT22;206;48.782;9.252;2024-03-06T10:49:13;9.60;66.40
439;DHT22;206;48.782;9.252;2024-03-06T10:51:40;9.60;67.50
439;DHT22;206;48.782;9.252;2024-03-06T10:54:09;9.60;66.80
439;DHT22;206;48.782;9.252;2024-03-06T10:56:38;9.40;66.20
439;DHT22;206;48.782;9.252;2024-03-06T10:59:05;9.40;67.90
439;DHT22;206;48.782;9.252;2024-03-06T11:01:32;9.30;68.20
439;DHT22;206;48.782;9.252;2024-03-06T11:04:00;9.30;70.10
439;DHT22;206;48.782;9.252;2024-03-06T11:06:26;9.30;69.70
439;DHT22;206;48.782;9.252;2024-03-06T11:08:52;9.40;71.20
439;DHT22;206;48.782;9.252;2024-03-06T11:11:21;9.50;69.80
439;DHT22;206;48.782;9.252;2024-03-06T11:13:47;9.60;69.50
439;DHT22;206;48.782;9.252;2024-03-06T11:16:13;9.60;68.50
439;DHT22;206;48.782;9.252;2024-03-06T11:23:31;9.70;67.40
439;DHT22;206;48.782;9.252;2024-03-06T11:28:34;9.60;67.50
439;DHT22;206;48.782;9.252;2024-03-06T11:31:06;9.60;68.80
439;DHT22;206;48.782;9.252;2024-03-06T11:33:36;9.60;69.80
439;DHT22;206;48.782;9.252;2024-03-06T11:38:51;9.60;71.50
439;DHT22;206;48.782;9.252;2024-03-06T11:41:22;9.60;69.70
439;DHT22;206;48.782;9.252;2024-03-06T11:43:51;9.70;71.40
439;DHT22;206;48.782;9.252;2024-03-06T11:46:19;9.80;69.60
439;DHT22;206;48.782;9.252;2024-03-06T11:48:53;9.70;69.30
439;DHT22;206;48.782;9.252;2024-03-06T11:51:19;9.70;70.30
439;DHT22;206;48.782;9.252;2024-03-06T11:53:45;9.70;70.10
439;DHT22;206;48.782;9.252;2024-03-06T11:56:14;9.70;71.30
439;DHT22;206;48.782;9.252;2024-03-06T11:58:39;9.80;70.00
439;DHT22;206;48.782;9.252;2024-03-06T12:01:05;9.80;69.80
439;DHT22;206;48.782;9.252;2024-03-06T12:03:31;9.80;69.70
439;DHT22;206;48.782;9.252;2024-03-06T12:05:58;9.80;70.90
439;DHT22;206;48.782;9.252;2024-03-06T12:08:24;10.00;71.10
439;DHT22;206;48.782;9.252;2024-03-06T12:10:50;10.00;69.10
439;DHT22;206;48.782;9.252;2024-03-06T12:13:16;10.00;68.10
439;DHT22;206;48.782;9.252;2024-03-06T12:15:45;10.00;68.10
439;DHT22;206;48.782;9.252;2024-03-06T12:18:11;9.90;68.80
439;DHT22;206;48.782;9.252;2024-03-06T12:20:45;9.90;70.00
439;DHT22;206;48.782;9.252;2024-03-06T12:23:23;9.90;69.70
439;DHT22;206;48.782;9.252;2024-03-06T12:26:02;9.90;69.60
439;DHT22;206;48.782;9.252;2024-03-06T12:28:28;9.90;70.00
439;DHT22;206;48.782;9.252;2024-03-06T12:30:53;9.90;70.60
439;DHT22;206;48.782;9.252;2024-03-06T12:33:19;9.90;69.80
439;DHT22;206;48.782;9.252;2024-03-06T12:35:45;9.90;68.80
439;DHT22;206;48.782;9.252;2024-03-06T12:38:20;9.90;70.60
439;DHT22;206;48.782;9.252;2024-03-06T12:40:46;10.00;69.40
439;DHT22;206;48.782;9.252;2024-03-06T12:43:11;10.00;68.40
439;DHT22;206;48.782;9.252;2024-03-06T12:45:37;10.10;67.90
439;DHT22;206;48.782;9.252;2024-03-06T12:48:03;10.10;67.20
439;DHT22;206;48.782;9.252;2024-03-06T12:50:30;10.00;66.20
439;DHT22;206;48.782;9.252;2024-03-06T12:52:56;9.90;67.70
439;DHT22;206;48.782;9.252;2024-03-06T12:55:21;9.80;68.70
439;DHT22;206;48.782;9.252;2024-03-06T12:57:47;9.80;69.50
439;DHT22;206;48.782;9.252;2024-03-06T13:00:13;9.80;70.50
439;DHT22;206;48.782;9.252;2024-03-06T13:02:43;9.90;71.80
439;DHT22;206;48.782;9.252;2024-03-06T13:05:09;9.90;72.00
439;DHT22;206;48.782;9.252;2024-03-06T13:07:35;9.90;70.60
439;DHT22;206;48.782;9.252;2024-03-06T13:10:04;9.90;67.10
439;DHT22;206;48.782;9.252;2024-03-06T13:12:30;9.90;68.80
439;DHT22;206;48.782;9.252;2024-03-06T13:14:56;9.90;68.80
439;DHT22;206;48.782;9.252;2024-03-06T13:17:22;9.80;69.20
439;DHT22;206;48.782;9.252;2024-03-06T13:19:47;9.80;69.20
439;DHT22;206;48.782;9.252;2024-03-06T13:22:14;9.80;69.30
439;DHT22;206;48.782;9.252;2024-03-06T13:24:39;9.80;70.80
439;DHT22;206;48.782;9.252;2024-03-06T13:27:05;9.80;71.10
439;DHT22;206;48.782;9.252;2024-03-06T13:29:30;9.80;70.10
439;DHT22;206;48.782;9.252;2024-03-06T13:31:56;9.80;70.40
439;DHT22;206;48.782;9.252;2024-03-06T13:34:22;9.80;70.80
439;DHT22;206;48.782;9.252;2024-03-06T13:36:48;9.70;69.40
439;DHT22;206;48.782;9.252;2024-03-06T13:39:13;9.70;71.40
439;DHT22;206;48.782;9.252;2024-03-06T13:41:39;9.70;71.20
439;DHT22;206;48.782;9.252;2024-03-06T13:44:06;9.60;71.70
439;DHT22;206;48.782;9.252;2024-03-06T13:46:33;9.60;72.40
439;DHT22;206;48.782;9.252;2024-03-06T13:48:59;9.60;73.30
439;DHT22;206;48.782;9.252;2024-03-06T13:51:25;9.60;73.70
439;DHT22;206;48.782;9.252;2024-03-06T13:53:51;9.70;74.90
439;DHT22;206;48.782;9.252;2024-03-06T13:56:17;9.80;73.60
439;DHT22;206;48.782;9.252;2024-03-06T13:58:43;9.60;71.20
439;DHT22;206;48.782;9.252;2024-03-06T14:01:09;9.60;73.40
439;DHT22;206;48.782;9.252;2024-03-06T14:03:34;9.60;74.40
439;DHT22;206;48.782;9.252;2024-03-06T14:06:03;9.70;75.70
439;DHT22;206;48.782;9.252;2024-03-06T14:08:29;9.70;73.70
439;DHT22;206;48.782;9.252;2024-03-06T14:10:54;9.80;73.70
439;DHT22;206;48.782;9.252;2024-03-06T14:13:20;9.80;74.50
439;DHT22;206;48.782;9.252;2024-03-06T14:15:46;9.90;73.20
439;DHT22;206;48.782;9.252;2024-03-06T14:18:13;9.90;72.80
439;DHT22;206;48.782;9.252;2024-03-06T14:20:39;9.90;73.10
439;DHT22;206;48.782;9.252;2024-03-06T14:23:04;9.90;73.70
439;DHT22;206;48.782;9.252;2024-03-06T14:25:30;10.00;72.70
439;DHT22;206;48.782;9.252;2024-03-06T14:28:00;10.00;72.70
439;DHT22;206;48.782;9.252;2024-03-06T14:30:26;9.90;71.60
439;DHT22;206;48.782;9.252;2024-03-06T14:32:52;9.90;73.70
439;DHT22;206;48.782;9.252;2024-03-06T14:35:18;9.90;74.50
439;DHT22;206;48.782;9.252;2024-03-06T14:37:44;9.80;74.60
439;DHT22;206;48.782;9.252;2024-03-06T14:40:10;9.90;74.70
439;DHT22;206;48.782;9.252;2024-03-06T14:42:35;9.90;74.40
439;DHT22;206;48.782;9.252;2024-03-06T14:45:01;9.80;74.20
439;DHT22;206;48.782;9.252;2024-03-06T14:47:30;9.80;74.80
439;DHT22;206;48.782;9.252;2024-03-06T14:49:57;9.80;75.10
439;DHT22;206;48.782;9.252;2024-03-06T14:52:22;9.80;75.00
439;DHT22;206;48.782;9.252;2024-03-06T14:54:48;9.80;76.60
439;DHT22;206;48.782;9.252;2024-03-06T14:57:14;9.80;76.40
439;DHT22;206;48.782;9.252;2024-03-06T14:59:40;9.80;77.60
439;DHT22;206;48.782;9.252;2024-03-06T15:02:05;9.80;76.00
439;DHT22;206;48.782;9.252;2024-03-06T15:04:31;9.90;75.90
439;DHT22;206;48.782;9.252;2024-03-06T15:06:57;9.80;75.30
439;DHT22;206;48.782;9.252;2024-03-06T15:09:25;9.80;76.10
439;DHT22;206;48.782;9.252;2024-03-06T15:11:51;9.80;77.30
439;DHT22;206;48.782;9.252;2024-03-06T15:14:18;9.80;77.20
439;DHT22;206;48.782;9.252;2024-03-06T15:16:44;9.90;77.20
439;DHT22;206;48.782;9.252;2024-03-06T15:19:10;9.90;78.20
439;DHT22;206;48.782;9.252;2024-03-06T15:21:35;9.90;77.70
439;DHT22;206;48.782;9.252;2024-03-06T15:24:01;9.90;75.50
439;DHT22;206;48.782;9.252;2024-03-06T15:26:26;9.90;75.90
439;DHT22;206;48.782;9.252;2024-03-06T15:28:52;9.80;74.80
439;DHT22;206;48.782;9.252;2024-03-06T15:31:18;9.90;75.30
439;DHT22;206;48.782;9.252;2024-03-06T15:33:44;9.90;74.60
439;DHT22;206;48.782;9.252;2024-03-06T15:36:12;9.80;75.00
439;DHT22;206;48.782;9.252;2024-03-06T15:38:38;9.80;75.80
439;DHT22;206;48.782;9.252;2024-03-06T15:41:04;9.80;77.50
439;DHT22;206;48.782;9.252;2024-03-06T15:43:29;9.80;77.00
439;DHT22;206;48.782;9.252;2024-03-06T15:45:55;9.70;75.80
439;DHT22;206;48.782;9.252;2024-03-06T15:48:24;9.60;76.00
439;DHT22;206;48.782;9.252;2024-03-06T15:50:49;9.50;77.20
439;DHT22;206;48.782;9.252;2024-03-06T15:53:15;9.60;79.60
439;DHT22;206;48.782;9.252;2024-03-06T15:55:41;9.50;79.60
439;DHT22;206;48.782;9.252;2024-03-06T15:58:07;9.60;79.90
439;DHT22;206;48.782;9.252;2024-03-06T16:00:33;9.60;80.00
439;DHT22;206;48.782;9.252;2024-03-06T16:02:58;9.60;78.50
439;DHT22;206;48.782;9.252;2024-03-06T16:05:24;9.60;78.40
439;DHT22;206;48.782;9.252;2024-03-06T16:07:56;9.70;79.70
439;DHT22;206;48.782;9.252;2024-03-06T16:10:23;9.70;78.30
439;DHT22;206;48.782;9.252;2024-03-06T16:12:49;9.60;78.20
439;DHT22;206;48.782;9.252;2024-03-06T16:15:15;9.50;79.00
439;DHT22;206;48.782;9.252;2024-03-06T16:17:41;9.50;80.20
439;DHT22;206;48.782;9.252;2024-03-06T16:20:07;9.50;80.90
439;DHT22;206;48.782;9.252;2024-03-06T16:22:33;9.60;81.00
439;DHT22;206;48.782;9.252;2024-03-06T16:24:58;9.60;81.10
439;DHT22;206;48.782;9.252;2024-03-06T16:27:24;9.70;80.80
439;DHT22;206;48.782;9.252;2024-03-06T16:29:49;9.70;80.80
439;DHT22;206;48.782;9.252;2024-03-06T16:32:16;9.70;80.50
439;DHT22;206;48.782;9.252;2024-03-06T16:34:42;9.80;79.20
439;DHT22;206;48.782;9.252;2024-03-06T16:37:08;9.80;79.80
439;DHT22;206;48.782;9.252;2024-03-06T16:39:33;9.70;78.90
439;DHT22;206;48.782;9.252;2024-03-06T16:42:00;9.70;78.70
439;DHT22;206;48.782;9.252;2024-03-06T16:44:25;9.60;79.60
439;DHT22;206;48.782;9.252;2024-03-06T16:46:51;9.60;79.40
439;DHT22;206;48.782;9.252;2024-03-06T16:49:16;9.50;80.20
439;DHT22;206;48.782;9.252;2024-03-06T16:51:43;9.40;80.80
439;DHT22;206;48.782;9.252;2024-03-06T16:54:09;9.40;81.20
439;DHT22;206;48.782;9.252;2024-03-06T16:56:34;9.40;82.30